createdAt,value
2023-04-26T00:00:15.488Z,7.30
2023-04-26T00:01:15.459Z,7.60
2023-04-26T00:02:15.493Z,7.80
2023-04-26T00:03:15.639Z,7.30
2023-04-26T00:04:15.629Z,6.80
2023-04-26T00:05:15.606Z,7.60
2023-04-26T00:06:15.529Z,6.20
2023-04-26T00:07:15.424Z,6.40
2023-04-26T00:08:15.466Z,6.30
2023-04-26T00:09:15.413Z,5.20
2023-04-26T00:10:15.408Z,8.20
2023-04-26T00:11:15.408Z,6.40
2023-04-26T00:12:15.390Z,8.50
2023-04-26T00:13:15.401Z,7.90
2023-04-26T00:14:15.374Z,10.00
2023-04-26T00:15:15.389Z,5.30
2023-04-26T00:16:15.411Z,5.90
2023-04-26T00:17:15.362Z,9.20
2023-04-26T00:18:15.406Z,8.10
2023-04-26T00:19:15.330Z,7.20
2023-04-26T00:20:15.339Z,7.30
2023-04-26T00:21:15.325Z,5.80
2023-04-26T00:22:15.408Z,6.40
2023-04-26T00:23:15.365Z,8.70
2023-04-26T00:24:15.348Z,9.30
2023-04-26T00:25:15.286Z,6.90
2023-04-26T00:26:15.283Z,8.30
2023-04-26T00:27:15.333Z,6.70
2023-04-26T00:28:15.296Z,7.90
2023-04-26T00:29:15.270Z,7.30
2023-04-26T00:30:15.264Z,8.90
2023-04-26T00:31:15.278Z,7.20
2023-04-26T00:32:15.259Z,7.60
2023-04-26T00:33:15.276Z,7.10
2023-04-26T00:34:15.214Z,6.80
2023-04-26T00:35:15.209Z,6.50
2023-04-26T00:36:15.203Z,6.80
2023-04-26T00:37:15.225Z,8.40
2023-04-26T00:38:15.228Z,8.90
2023-04-26T00:39:15.189Z,8.80
2023-04-26T00:40:15.187Z,9.20
2023-04-26T00:41:15.169Z,7.50
2023-04-26T00:42:15.160Z,9.70
2023-04-26T00:43:15.177Z,9.20
2023-04-26T00:44:15.145Z,9.20
2023-04-26T00:45:15.134Z,6.70
2023-04-26T00:46:16.167Z,7.90
2023-04-26T00:47:15.141Z,8.20
2023-04-26T00:48:15.114Z,7.70
2023-04-26T00:49:15.136Z,7.80
2023-04-26T00:50:15.134Z,7.90
2023-04-26T00:51:15.083Z,7.10
2023-04-26T00:52:15.086Z,9.10
2023-04-26T00:53:15.082Z,8.40
2023-04-26T00:54:15.092Z,7.80
2023-04-26T00:55:15.076Z,7.60
2023-04-26T00:56:15.080Z,8.50
2023-04-26T00:57:15.070Z,9.20
2023-04-26T00:58:15.037Z,7.10
2023-04-26T00:59:15.048Z,9.30
2023-04-26T01:00:15.014Z,6.90
2023-04-26T01:01:15.074Z,9.10
2023-04-26T01:02:15.072Z,8.00
2023-04-26T01:03:15.213Z,9.50
2023-04-26T01:04:15.218Z,8.00
2023-04-26T01:05:14.988Z,7.40
2023-04-26T01:06:14.983Z,8.70
2023-04-26T01:07:14.965Z,7.10
2023-04-26T01:08:14.966Z,7.10
2023-04-26T01:09:14.980Z,7.90
2023-04-26T01:10:14.945Z,7.70
2023-04-26T01:11:14.960Z,8.20
2023-04-26T01:12:14.934Z,8.10
2023-04-26T01:13:14.947Z,8.30
2023-04-26T01:14:14.936Z,7.80
2023-04-26T01:15:14.910Z,8.10
2023-04-26T01:16:14.901Z,7.90
2023-04-26T01:17:14.971Z,7.40
2023-04-26T01:18:14.897Z,7.20
2023-04-26T01:19:14.913Z,7.30
2023-04-26T01:20:14.883Z,7.50
2023-04-26T01:21:14.855Z,7.90
2023-04-26T01:22:14.896Z,6.90
2023-04-26T01:23:14.849Z,6.70
2023-04-26T01:24:14.888Z,8.90
2023-04-26T01:25:15.151Z,6.10
2023-04-26T01:26:14.822Z,6.50
2023-04-26T01:27:14.855Z,7.40
2023-04-26T01:28:14.814Z,6.20
2023-04-26T01:29:14.825Z,6.10
2023-04-26T01:30:14.794Z,7.80
2023-04-26T01:31:14.800Z,6.80
2023-04-26T01:32:14.794Z,7.30
2023-04-26T01:33:14.775Z,7.50
2023-04-26T01:34:14.793Z,7.70
2023-04-26T01:35:14.776Z,8.70
2023-04-26T01:36:14.750Z,6.40
2023-04-26T01:37:14.753Z,9.80
2023-04-26T01:38:14.746Z,8.10
2023-04-26T01:39:14.753Z,9.10
2023-04-26T01:40:14.738Z,8.40
2023-04-26T01:41:14.725Z,9.10
2023-04-26T01:42:14.730Z,7.60
2023-04-26T01:43:14.706Z,9.20
2023-04-26T01:44:14.726Z,8.40
2023-04-26T01:45:14.676Z,8.50
2023-04-26T01:46:14.703Z,7.30
2023-04-26T01:47:14.670Z,7.60
2023-04-26T01:48:14.656Z,8.80
2023-04-26T01:49:14.680Z,8.70
2023-04-26T01:50:14.645Z,10.90
2023-04-26T01:51:14.630Z,7.90
2023-04-26T01:52:14.657Z,10.50
2023-04-26T01:53:14.621Z,10.60
2023-04-26T01:54:14.654Z,10.70
2023-04-26T01:55:14.604Z,9.30
2023-04-26T01:56:14.597Z,7.90
2023-04-26T01:57:14.629Z,11.00
2023-04-26T01:58:14.580Z,11.00
2023-04-26T01:59:14.604Z,12.90
2023-04-26T02:00:14.578Z,11.40
2023-04-26T02:01:14.609Z,10.40
2023-04-26T02:02:14.565Z,8.80
2023-04-26T02:03:14.740Z,11.70
2023-04-26T02:04:14.560Z,8.40
2023-04-26T02:05:14.641Z,9.30
2023-04-26T02:06:14.545Z,8.30
2023-04-26T02:07:14.514Z,8.90
2023-04-26T02:08:14.510Z,11.10
2023-04-26T02:09:14.528Z,9.00
2023-04-26T02:10:14.491Z,9.60
2023-04-26T02:11:14.478Z,10.30
2023-04-26T02:12:14.473Z,8.60
2023-04-26T02:13:14.477Z,11.30
2023-04-26T02:14:14.512Z,10.10
2023-04-26T02:15:14.454Z,12.70
2023-04-26T02:16:14.547Z,12.40
2023-04-26T02:17:14.445Z,11.30
2023-04-26T02:18:14.471Z,11.90
2023-04-26T02:19:14.456Z,10.30
2023-04-26T02:20:14.418Z,10.30
2023-04-26T02:21:14.415Z,9.70
2023-04-26T02:22:14.413Z,9.30
2023-04-26T02:23:14.408Z,8.00
2023-04-26T02:24:14.413Z,11.10
2023-04-26T02:25:14.383Z,10.00
2023-04-26T02:26:14.393Z,8.30
2023-04-26T02:27:14.366Z,9.00
2023-04-26T02:28:14.360Z,8.30
2023-04-26T02:29:14.378Z,7.70
2023-04-26T02:30:14.346Z,11.10
2023-04-26T02:31:14.407Z,9.50
2023-04-26T02:32:14.444Z,8.50
2023-04-26T02:33:14.317Z,10.40
2023-04-26T02:34:14.333Z,7.80
2023-04-26T02:35:14.298Z,11.00
2023-04-26T02:36:14.301Z,8.50
2023-04-26T02:37:14.303Z,10.40
2023-04-26T02:38:14.278Z,10.90
2023-04-26T02:39:14.313Z,8.50
2023-04-26T02:40:14.276Z,10.20
2023-04-26T02:41:14.265Z,8.30
2023-04-26T02:42:14.258Z,9.30
2023-04-26T02:43:14.268Z,11.40
2023-04-26T02:44:14.263Z,9.80
2023-04-26T02:45:14.228Z,8.80
2023-04-26T02:46:16.132Z,9.80
2023-04-26T02:47:14.218Z,8.30
2023-04-26T02:48:14.248Z,11.10
2023-04-26T02:49:14.232Z,8.90
2023-04-26T02:50:14.192Z,10.50
2023-04-26T02:51:14.180Z,9.60
2023-04-26T02:52:14.174Z,8.60
2023-04-26T02:53:14.165Z,9.00
2023-04-26T02:54:14.189Z,8.30
2023-04-26T02:55:14.165Z,8.40
2023-04-26T02:56:14.142Z,10.00
2023-04-26T02:57:14.144Z,8.90
2023-04-26T02:58:14.121Z,11.00
2023-04-26T02:59:14.130Z,7.40
2023-04-26T03:00:14.274Z,12.00
2023-04-26T03:01:14.138Z,8.40
2023-04-26T03:02:14.263Z,10.00
2023-04-26T03:03:14.236Z,9.70
2023-04-26T03:04:14.172Z,10.30
2023-04-26T03:05:14.101Z,7.50
2023-04-26T03:06:14.060Z,10.80
2023-04-26T03:07:14.053Z,8.20
2023-04-26T03:08:14.044Z,8.80
2023-04-26T03:09:14.060Z,11.20
2023-04-26T03:10:14.060Z,8.90
2023-04-26T03:11:14.033Z,10.60
2023-04-26T03:12:14.021Z,11.80
2023-04-26T03:13:14.006Z,8.10
2023-04-26T03:14:14.012Z,7.20
2023-04-26T03:15:14.034Z,8.30
2023-04-26T03:16:13.996Z,8.60
2023-04-26T03:17:13.984Z,9.50
2023-04-26T03:18:13.960Z,12.90
2023-04-26T03:19:14.977Z,10.10
2023-04-26T03:20:13.979Z,8.60
2023-04-26T03:21:13.945Z,8.10
2023-04-26T03:22:14.945Z,9.00
2023-04-26T03:23:13.927Z,7.20
2023-04-26T03:24:13.929Z,8.90
2023-04-26T03:25:13.941Z,9.50
2023-04-26T03:26:13.912Z,11.40
2023-04-26T03:27:13.913Z,9.00
2023-04-26T03:28:13.899Z,9.50
2023-04-26T03:29:13.891Z,9.70
2023-04-26T03:30:13.912Z,8.00
2023-04-26T03:31:13.876Z,9.40
2023-04-26T03:32:13.909Z,8.50
2023-04-26T03:33:13.965Z,10.30
2023-04-26T03:34:13.899Z,9.80
2023-04-26T03:35:13.873Z,10.40
2023-04-26T03:36:13.846Z,10.40
2023-04-26T03:37:13.837Z,10.40
2023-04-26T03:38:13.839Z,7.90
2023-04-26T03:39:13.815Z,9.30
2023-04-26T03:40:13.847Z,9.80
2023-04-26T03:41:13.820Z,8.90
2023-04-26T03:42:13.799Z,10.50
2023-04-26T03:43:13.789Z,10.20
2023-04-26T03:44:13.779Z,10.30
2023-04-26T03:45:13.803Z,9.10
2023-04-26T03:46:13.830Z,9.80
2023-04-26T03:47:13.749Z,11.00
2023-04-26T03:48:14.760Z,10.70
2023-04-26T03:49:13.746Z,12.30
2023-04-26T03:50:13.771Z,12.30
2023-04-26T03:51:13.718Z,12.20
2023-04-26T03:52:13.719Z,13.70
2023-04-26T03:53:13.724Z,15.20
2023-04-26T03:54:13.693Z,10.00
2023-04-26T03:55:14.723Z,10.70
2023-04-26T03:56:13.699Z,10.30
2023-04-26T03:57:13.683Z,9.20
2023-04-26T03:58:13.670Z,12.70
2023-04-26T03:59:13.672Z,12.20
2023-04-26T04:00:13.687Z,11.50
2023-04-26T04:01:13.656Z,12.20
2023-04-26T04:02:13.729Z,11.10
2023-04-26T04:03:13.829Z,12.00
2023-04-26T04:04:13.821Z,14.60
2023-04-26T04:05:13.817Z,12.40
2023-04-26T04:06:13.607Z,12.10
2023-04-26T04:07:13.602Z,11.70
2023-04-26T04:08:13.588Z,10.60
2023-04-26T04:09:13.583Z,13.60
2023-04-26T04:10:13.604Z,14.00
2023-04-26T04:11:13.568Z,13.20
2023-04-26T04:12:13.560Z,14.20
2023-04-26T04:13:13.552Z,10.60
2023-04-26T04:14:13.541Z,11.30
2023-04-26T04:15:13.574Z,12.30
2023-04-26T04:16:13.553Z,10.20
2023-04-26T04:17:13.524Z,10.40
2023-04-26T04:18:13.597Z,9.70
2023-04-26T04:19:13.509Z,11.00
2023-04-26T04:20:13.524Z,11.00
2023-04-26T04:21:13.486Z,12.80
2023-04-26T04:22:13.482Z,11.20
2023-04-26T04:23:13.472Z,11.60
2023-04-26T04:24:13.467Z,13.20
2023-04-26T04:25:13.756Z,12.80
2023-04-26T04:26:13.453Z,9.30
2023-04-26T04:27:13.442Z,10.20
2023-04-26T04:28:13.477Z,11.70
2023-04-26T04:29:13.434Z,9.30
2023-04-26T04:30:13.453Z,11.30
2023-04-26T04:31:13.482Z,11.70
2023-04-26T04:32:13.414Z,8.70
2023-04-26T04:33:13.406Z,10.10
2023-04-26T04:34:13.388Z,10.10
2023-04-26T04:35:13.422Z,9.70
2023-04-26T04:36:13.376Z,9.70
2023-04-26T04:37:13.366Z,8.80
2023-04-26T04:38:13.363Z,10.00
2023-04-26T04:39:13.404Z,10.00
2023-04-26T04:40:13.468Z,10.40
2023-04-26T04:41:13.342Z,9.20
2023-04-26T04:42:13.342Z,8.20
2023-04-26T04:43:13.345Z,9.00
2023-04-26T04:44:13.378Z,9.70
2023-04-26T04:45:13.357Z,10.70
2023-04-26T04:46:13.388Z,8.00
2023-04-26T04:47:13.306Z,8.90
2023-04-26T04:48:13.296Z,7.70
2023-04-26T04:49:13.280Z,9.80
2023-04-26T04:50:13.296Z,9.80
2023-04-26T04:51:13.263Z,8.80
2023-04-26T04:52:13.254Z,7.60
2023-04-26T04:53:13.249Z,9.50
2023-04-26T04:54:13.261Z,8.30
2023-04-26T04:55:13.256Z,8.60
2023-04-26T04:56:13.256Z,7.30
2023-04-26T04:57:13.219Z,7.10
2023-04-26T04:58:13.211Z,8.30
2023-04-26T04:59:13.202Z,8.30
2023-04-26T05:00:13.224Z,11.90
2023-04-26T05:01:13.229Z,7.60
2023-04-26T05:02:13.397Z,9.10
2023-04-26T05:03:13.258Z,7.30
2023-04-26T05:04:13.343Z,7.00
2023-04-26T05:05:13.274Z,6.70
2023-04-26T05:06:13.175Z,7.20
2023-04-26T05:07:13.155Z,8.30
2023-04-26T05:08:14.003Z,7.90
2023-04-26T05:09:13.132Z,8.50
2023-04-26T05:10:13.149Z,9.90
2023-04-26T05:11:13.112Z,9.20
2023-04-26T05:12:13.109Z,11.80
2023-04-26T05:13:13.101Z,11.60
2023-04-26T05:14:13.088Z,10.80
2023-04-26T05:15:13.118Z,11.00
2023-04-26T05:16:13.134Z,11.30
2023-04-26T05:17:13.073Z,12.90
2023-04-26T05:18:13.086Z,12.50
2023-04-26T05:19:13.065Z,11.70
2023-04-26T05:20:13.069Z,11.60
2023-04-26T05:21:13.041Z,10.00
2023-04-26T05:22:13.030Z,11.20
2023-04-26T05:23:13.021Z,12.00
2023-04-26T05:24:13.004Z,10.50
2023-04-26T05:25:44.976Z,10.60
2023-04-26T05:26:13.005Z,11.60
2023-04-26T05:27:12.991Z,10.10
2023-04-26T05:28:12.988Z,11.80
2023-04-26T05:29:12.988Z,10.50
2023-04-26T05:30:13.019Z,10.30
2023-04-26T05:31:13.031Z,12.10
2023-04-26T05:32:13.020Z,10.80
2023-04-26T05:33:12.996Z,12.00
2023-04-26T05:34:12.945Z,11.30
2023-04-26T05:35:12.978Z,10.70
2023-04-26T05:36:12.956Z,15.60
2023-04-26T05:37:12.907Z,11.30
2023-04-26T05:38:12.913Z,9.70
2023-04-26T05:39:12.898Z,13.80
2023-04-26T05:40:12.935Z,12.40
2023-04-26T05:41:12.882Z,11.00
2023-04-26T05:42:12.899Z,11.70
2023-04-26T05:43:12.876Z,11.20
2023-04-26T05:44:12.858Z,11.40
2023-04-26T05:45:12.889Z,12.00
2023-04-26T05:46:12.943Z,12.20
2023-04-26T05:47:12.863Z,11.00
2023-04-26T05:48:12.938Z,11.40
2023-04-26T05:49:12.825Z,13.70
2023-04-26T05:50:12.839Z,12.20
2023-04-26T05:51:12.815Z,12.50
2023-04-26T05:52:12.796Z,11.40
2023-04-26T05:53:12.802Z,12.00
2023-04-26T05:54:12.780Z,12.00
2023-04-26T05:55:12.766Z,11.20
2023-04-26T05:56:12.794Z,10.30
2023-04-26T05:57:12.774Z,12.80
2023-04-26T05:58:12.755Z,12.40
2023-04-26T05:59:12.744Z,14.60
2023-04-26T06:00:12.749Z,14.60
2023-04-26T06:01:12.764Z,16.20
2023-04-26T06:02:12.826Z,10.80
2023-04-26T06:03:12.867Z,11.50
2023-04-26T06:04:12.872Z,15.30
2023-04-26T06:05:12.923Z,14.50
2023-04-26T06:06:12.743Z,12.50
2023-04-26T06:07:12.683Z,11.20
2023-04-26T06:08:12.674Z,12.90
2023-04-26T06:09:12.665Z,16.00
2023-04-26T06:10:12.658Z,11.50
2023-04-26T06:11:12.728Z,10.30
2023-04-26T06:12:12.678Z,11.40
2023-04-26T06:13:12.635Z,10.90
2023-04-26T06:14:28.747Z,11.30
2023-04-26T06:15:14.619Z,11.30
2023-04-26T06:16:12.637Z,11.60
2023-04-26T06:17:12.664Z,11.00
2023-04-26T06:18:12.654Z,15.60
2023-04-26T06:19:12.586Z,11.90
2023-04-26T06:20:12.580Z,10.10
2023-04-26T06:21:12.602Z,11.60
2023-04-26T06:22:12.582Z,13.90
2023-04-26T06:23:12.551Z,10.00
2023-04-26T06:24:12.563Z,11.50
2023-04-26T06:25:12.539Z,12.30
2023-04-26T06:26:12.558Z,10.60
2023-04-26T06:27:12.571Z,9.70
2023-04-26T06:28:12.560Z,11.60
2023-04-26T06:29:12.515Z,10.80
2023-04-26T06:30:12.501Z,11.50
2023-04-26T06:31:12.557Z,11.80
2023-04-26T06:32:12.502Z,11.40
2023-04-26T06:33:12.525Z,13.50
2023-04-26T06:34:12.476Z,10.70
2023-04-26T06:35:12.469Z,11.80
2023-04-26T06:36:12.528Z,10.10
2023-04-26T06:37:12.525Z,12.10
2023-04-26T06:38:12.448Z,11.60
2023-04-26T06:39:12.436Z,12.10
2023-04-26T06:40:12.435Z,11.10
2023-04-26T06:41:12.448Z,11.00
2023-04-26T06:42:12.413Z,11.20
2023-04-26T06:43:12.415Z,10.70
2023-04-26T06:44:12.398Z,10.90
2023-04-26T06:45:12.390Z,10.40
2023-04-26T06:46:12.423Z,10.20
2023-04-26T06:47:12.373Z,12.60
2023-04-26T06:48:12.431Z,9.90
2023-04-26T06:49:12.368Z,14.80
2023-04-26T06:50:13.219Z,11.00
2023-04-26T06:51:12.471Z,9.40
2023-04-26T06:52:12.334Z,11.70
2023-04-26T06:53:12.337Z,12.10
2023-04-26T06:54:12.319Z,13.20
2023-04-26T06:55:12.323Z,10.80
2023-04-26T06:56:12.332Z,15.90
2023-04-26T06:57:12.302Z,10.80
2023-04-26T06:58:12.293Z,10.20
2023-04-26T06:59:12.267Z,8.70
2023-04-26T07:00:13.300Z,11.40
2023-04-26T07:01:12.322Z,12.20
2023-04-26T07:02:13.272Z,10.50
2023-04-26T07:03:12.367Z,9.10
2023-04-26T07:04:12.336Z,9.90
2023-04-26T07:05:12.372Z,9.30
2023-04-26T07:06:12.297Z,11.00
2023-04-26T07:07:13.688Z,8.30
2023-04-26T07:08:13.429Z,10.40
2023-04-26T07:09:12.211Z,9.40
2023-04-26T07:10:12.193Z,11.60
2023-04-26T07:11:12.208Z,15.20
2023-04-26T07:12:12.179Z,15.30
2023-04-26T07:13:12.179Z,14.60
2023-04-26T07:14:12.183Z,14.60
2023-04-26T07:15:12.160Z,13.20
2023-04-26T07:16:12.224Z,10.80
2023-04-26T07:17:12.149Z,14.40
2023-04-26T07:18:12.195Z,12.60
2023-04-26T07:19:12.125Z,9.80
2023-04-26T07:20:12.112Z,9.00
2023-04-26T07:21:12.150Z,17.20
2023-04-26T07:22:12.110Z,12.50
2023-04-26T07:23:12.084Z,10.80
2023-04-26T07:24:12.190Z,7.60
2023-04-26T07:25:12.075Z,7.30
2023-04-26T07:26:12.097Z,7.80
2023-04-26T07:27:12.070Z,9.50
2023-04-26T07:28:12.081Z,7.90
2023-04-26T07:29:12.067Z,9.50
2023-04-26T07:30:12.043Z,7.50
2023-04-26T07:31:12.033Z,10.20
2023-04-26T07:32:12.075Z,8.40
2023-04-26T07:33:12.129Z,10.30
2023-04-26T07:34:12.011Z,10.00
2023-04-26T07:35:12.007Z,10.80
2023-04-26T07:36:12.016Z,9.80
2023-04-26T07:37:12.009Z,9.90
2023-04-26T07:38:11.980Z,6.90
2023-04-26T07:39:11.982Z,11.30
2023-04-26T07:40:11.965Z,9.80
2023-04-26T07:41:11.955Z,9.70
2023-04-26T07:42:12.975Z,9.20
2023-04-26T07:43:11.946Z,7.50
2023-04-26T07:44:11.948Z,8.70
2023-04-26T07:45:11.940Z,7.00
2023-04-26T07:46:12.007Z,9.30
2023-04-26T07:47:11.939Z,6.30
2023-04-26T07:48:11.995Z,8.70
2023-04-26T07:49:11.900Z,8.70
2023-04-26T07:50:11.891Z,7.50
2023-04-26T07:51:11.872Z,7.20
2023-04-26T07:52:11.897Z,7.20
2023-04-26T07:53:11.892Z,7.50
2023-04-26T07:54:11.852Z,7.20
2023-04-26T07:55:11.842Z,6.00
2023-04-26T07:56:11.841Z,6.30
2023-04-26T07:57:11.856Z,8.90
2023-04-26T07:58:11.826Z,7.80
2023-04-26T07:59:11.820Z,9.00
2023-04-26T08:00:11.808Z,8.20
2023-04-26T08:01:11.871Z,8.40
2023-04-26T08:02:11.822Z,7.50
2023-04-26T08:03:11.969Z,6.10
2023-04-26T08:04:11.909Z,7.00
2023-04-26T08:05:13.018Z,7.70
2023-04-26T08:06:11.887Z,9.10
2023-04-26T08:07:11.784Z,8.60
2023-04-26T08:08:11.774Z,7.90
2023-04-26T08:09:11.746Z,5.90
2023-04-26T08:10:11.730Z,5.60
2023-04-26T08:11:11.724Z,6.50
2023-04-26T08:12:11.765Z,5.20
2023-04-26T08:13:11.742Z,7.30
2023-04-26T08:14:11.708Z,7.40
2023-04-26T08:15:11.696Z,7.50
2023-04-26T08:16:11.687Z,6.20
2023-04-26T08:17:11.839Z,6.30
2023-04-26T08:18:11.729Z,5.70
2023-04-26T08:19:11.663Z,7.60
2023-04-26T08:20:11.655Z,6.40
2023-04-26T08:21:11.642Z,5.20
2023-04-26T08:22:11.679Z,8.20
2023-04-26T08:23:11.655Z,7.60
2023-04-26T08:24:11.627Z,7.80
2023-04-26T08:25:11.615Z,6.60
2023-04-26T08:26:11.628Z,7.50
2023-04-26T08:27:11.669Z,4.90
2023-04-26T08:28:11.602Z,6.70
2023-04-26T08:29:11.580Z,5.50
2023-04-26T08:30:11.591Z,8.10
2023-04-26T08:31:11.646Z,5.30
2023-04-26T08:32:11.629Z,6.70
2023-04-26T08:33:11.564Z,8.50
2023-04-26T08:34:11.538Z,7.20
2023-04-26T08:35:11.545Z,8.30
2023-04-26T08:36:11.533Z,5.00
2023-04-26T08:37:11.546Z,5.90
2023-04-26T08:38:11.509Z,5.40
2023-04-26T08:39:11.510Z,6.30
2023-04-26T08:40:11.494Z,8.50
2023-04-26T08:41:11.495Z,5.00
2023-04-26T08:42:11.519Z,5.60
2023-04-26T08:43:11.472Z,5.30
2023-04-26T08:44:11.520Z,4.60
2023-04-26T08:45:11.477Z,4.70
2023-04-26T08:46:11.468Z,5.60
2023-04-26T08:47:11.511Z,6.40
2023-04-26T08:48:11.520Z,5.80
2023-04-26T08:49:11.435Z,4.90
2023-04-26T08:50:11.427Z,4.60
2023-04-26T08:51:11.425Z,5.30
2023-04-26T08:52:11.443Z,5.00
2023-04-26T08:53:11.397Z,4.80
2023-04-26T08:54:11.388Z,5.00
2023-04-26T08:55:11.387Z,5.20
2023-04-26T08:56:11.373Z,6.40
2023-04-26T08:57:11.389Z,6.60
2023-04-26T08:58:11.359Z,6.00
2023-04-26T08:59:12.465Z,4.50
2023-04-26T09:00:11.481Z,5.50
2023-04-26T09:01:11.401Z,7.60
2023-04-26T09:02:11.409Z,6.60
2023-04-26T09:03:11.425Z,6.30
2023-04-26T09:04:11.694Z,4.80
2023-04-26T09:05:11.383Z,6.80
2023-04-26T09:06:11.297Z,6.10
2023-04-26T09:07:12.279Z,7.30
2023-04-26T09:08:11.279Z,5.40
2023-04-26T09:09:12.065Z,7.00
2023-04-26T09:10:12.123Z,7.70
2023-04-26T09:11:11.263Z,6.60
2023-04-26T09:12:11.285Z,6.90
2023-04-26T09:13:11.266Z,6.90
2023-04-26T09:14:11.265Z,6.80
2023-04-26T09:15:11.239Z,8.40
2023-04-26T09:16:11.396Z,6.80
2023-04-26T09:17:12.236Z,6.10
2023-04-26T09:18:11.216Z,7.00
2023-04-26T09:19:11.189Z,7.20
2023-04-26T09:20:11.208Z,5.90
2023-04-26T09:21:11.190Z,5.30
2023-04-26T09:22:11.211Z,5.80
2023-04-26T09:23:11.163Z,7.60
2023-04-26T09:24:11.176Z,6.60
2023-04-26T09:25:11.140Z,4.30
2023-04-26T09:26:11.143Z,3.70
2023-04-26T09:27:11.141Z,5.40
2023-04-26T09:28:11.160Z,6.50
2023-04-26T09:29:11.116Z,4.60
2023-04-26T09:30:11.271Z,6.00
2023-04-26T09:31:11.137Z,5.80
2023-04-26T09:32:11.258Z,7.90
2023-04-26T09:33:11.155Z,8.20
2023-04-26T09:34:11.095Z,9.60
2023-04-26T09:35:11.073Z,8.20
2023-04-26T09:36:11.057Z,4.00
2023-04-26T09:37:11.124Z,6.60
2023-04-26T09:38:13.287Z,4.30
2023-04-26T09:39:12.047Z,3.40
2023-04-26T09:40:11.037Z,5.70
2023-04-26T09:41:11.034Z,5.50
2023-04-26T09:42:11.024Z,4.40
2023-04-26T09:43:11.058Z,4.10
2023-04-26T09:44:11.014Z,5.50
2023-04-26T09:45:11.014Z,5.20
2023-04-26T09:46:10.992Z,4.60
2023-04-26T09:47:11.033Z,4.70
2023-04-26T09:48:11.004Z,7.10
2023-04-26T09:49:10.978Z,6.00
2023-04-26T09:50:10.962Z,6.80
2023-04-26T09:51:10.957Z,6.80
2023-04-26T09:52:11.969Z,6.00
2023-04-26T09:53:10.966Z,6.00
2023-04-26T09:54:10.931Z,4.90
2023-04-26T09:55:12.643Z,7.00
2023-04-26T09:56:11.929Z,6.40
2023-04-26T09:57:10.917Z,6.70
2023-04-26T09:58:10.957Z,5.00
2023-04-26T09:59:10.946Z,5.90
2023-04-26T10:00:10.882Z,5.80
2023-04-26T10:01:10.919Z,8.20
2023-04-26T10:02:10.862Z,4.60
2023-04-26T10:03:11.499Z,6.00
2023-04-26T10:04:11.024Z,5.70
2023-04-26T10:05:10.848Z,6.70
2023-04-26T10:06:10.844Z,6.50
2023-04-26T10:07:10.832Z,6.00
2023-04-26T10:08:10.850Z,4.30
2023-04-26T10:09:10.815Z,4.80
2023-04-26T10:10:10.820Z,5.90
2023-04-26T10:11:10.787Z,5.40
2023-04-26T10:12:10.874Z,5.70
2023-04-26T10:13:10.820Z,5.70
2023-04-26T10:14:10.772Z,7.40
2023-04-26T10:15:10.775Z,7.70
2023-04-26T10:16:10.824Z,5.70
2023-04-26T10:17:10.789Z,6.10
2023-04-26T10:18:10.850Z,5.80
2023-04-26T10:19:10.749Z,8.10
2023-04-26T10:20:10.787Z,7.30
2023-04-26T10:21:10.722Z,6.20
2023-04-26T10:22:10.719Z,6.20
2023-04-26T10:23:10.734Z,7.50
2023-04-26T10:24:10.698Z,4.60
2023-04-26T10:25:10.691Z,6.60
2023-04-26T10:26:10.724Z,6.00
2023-04-26T10:27:10.681Z,6.10
2023-04-26T10:28:10.702Z,6.30
2023-04-26T10:29:10.663Z,6.40
2023-04-26T10:30:10.662Z,7.00
2023-04-26T10:31:10.645Z,6.10
2023-04-26T10:32:10.729Z,5.60
2023-04-26T10:33:10.689Z,5.10
2023-04-26T10:34:11.992Z,6.60
2023-04-26T10:35:10.625Z,8.50
2023-04-26T10:36:10.664Z,6.10
2023-04-26T10:37:10.615Z,6.50
2023-04-26T10:38:10.637Z,6.50
2023-04-26T10:39:10.614Z,8.80
2023-04-26T10:40:10.585Z,5.00
2023-04-26T10:41:10.642Z,7.30
2023-04-26T10:42:10.570Z,5.50
2023-04-26T10:43:10.568Z,5.40
2023-04-26T10:44:10.588Z,7.00
2023-04-26T10:45:10.564Z,6.00
2023-04-26T10:46:10.578Z,6.00
2023-04-26T10:47:10.531Z,8.50
2023-04-26T10:48:10.573Z,4.90
2023-04-26T10:49:10.544Z,8.30
2023-04-26T10:50:10.525Z,5.40
2023-04-26T10:51:10.508Z,6.50
2023-04-26T10:52:11.512Z,5.90
2023-04-26T10:53:10.491Z,5.50
2023-04-26T10:54:10.516Z,4.90
2023-04-26T10:55:10.523Z,5.40
2023-04-26T10:56:10.470Z,5.50
2023-04-26T10:57:10.474Z,7.10
2023-04-26T10:58:10.476Z,6.20
2023-04-26T10:59:22.574Z,6.50
2023-04-26T11:00:12.431Z,6.00
2023-04-26T11:01:10.467Z,6.20
2023-04-26T11:02:10.420Z,5.10
2023-04-26T11:03:10.485Z,6.60
2023-04-26T11:04:10.485Z,5.50
2023-04-26T11:05:10.404Z,4.50
2023-04-26T11:06:10.396Z,6.60
2023-04-26T11:07:10.378Z,5.40
2023-04-26T11:08:10.440Z,5.10
2023-04-26T11:09:10.363Z,6.50
2023-04-26T11:10:10.360Z,4.90
2023-04-26T11:11:10.381Z,6.00
2023-04-26T11:12:10.340Z,6.90
2023-04-26T11:13:10.374Z,5.70
2023-04-26T11:14:10.350Z,4.40
2023-04-26T11:15:10.317Z,6.10
2023-04-26T11:16:10.397Z,7.10
2023-04-26T11:17:10.308Z,6.80
2023-04-26T11:18:10.322Z,6.10
2023-04-26T11:19:10.289Z,6.30
2023-04-26T11:20:10.344Z,5.20
2023-04-26T11:21:10.266Z,5.80
2023-04-26T11:22:10.262Z,5.00
2023-04-26T11:23:10.276Z,5.80
2023-04-26T11:24:10.368Z,5.60
2023-04-26T11:25:10.235Z,5.40
2023-04-26T11:26:42.745Z,6.30
2023-04-26T11:27:10.216Z,6.80
2023-04-26T11:28:10.252Z,4.90
2023-04-26T11:29:10.267Z,6.20
2023-04-26T11:30:10.193Z,6.80
2023-04-26T11:31:11.216Z,5.30
2023-04-26T11:32:10.189Z,5.90
2023-04-26T11:33:10.299Z,7.10
2023-04-26T11:34:10.192Z,6.60
2023-04-26T11:35:10.170Z,4.30
2023-04-26T11:36:10.152Z,7.80
2023-04-26T11:37:10.144Z,4.50
2023-04-26T11:38:10.175Z,6.30
2023-04-26T11:39:11.245Z,5.50
2023-04-26T11:40:10.146Z,5.20
2023-04-26T11:41:10.151Z,4.90
2023-04-26T11:42:10.140Z,5.80
2023-04-26T11:43:10.169Z,6.30
2023-04-26T11:44:10.127Z,5.60
2023-04-26T11:45:10.093Z,5.80
2023-04-26T11:46:10.462Z,7.10
2023-04-26T11:47:10.260Z,5.10
2023-04-26T11:48:10.137Z,5.20
2023-04-26T11:49:10.097Z,6.40
2023-04-26T11:50:11.081Z,7.10
2023-04-26T11:51:10.036Z,5.80
2023-04-26T11:52:10.061Z,4.50
2023-04-26T11:53:10.108Z,5.50
2023-04-26T11:54:10.010Z,5.40
2023-04-26T11:55:10.003Z,4.90
2023-04-26T11:56:10.057Z,6.40
2023-04-26T11:57:10.077Z,6.50
2023-04-26T11:58:10.026Z,4.90
2023-04-26T11:59:09.981Z,4.70
2023-04-26T12:00:10.013Z,8.80
2023-04-26T12:01:09.964Z,9.10
2023-04-26T12:02:10.975Z,6.40
2023-04-26T12:03:10.246Z,5.90
2023-04-26T12:04:10.151Z,5.70
2023-04-26T12:05:09.976Z,7.10
2023-04-26T12:06:09.961Z,6.50
2023-04-26T12:07:09.981Z,5.20
2023-04-26T12:08:09.943Z,5.40
2023-04-26T12:09:09.903Z,6.00
2023-04-26T12:10:09.916Z,5.50
2023-04-26T12:11:09.928Z,6.10
2023-04-26T12:12:09.894Z,6.40
2023-04-26T12:13:09.902Z,6.60
2023-04-26T12:14:09.943Z,6.00
2023-04-26T12:15:09.858Z,5.10
2023-04-26T12:16:22.467Z,5.40
2023-04-26T12:17:11.931Z,7.50
2023-04-26T12:18:10.060Z,7.20
2023-04-26T12:19:09.824Z,5.20
2023-04-26T12:20:09.826Z,4.30
2023-04-26T12:21:09.818Z,5.10
2023-04-26T12:22:09.799Z,8.90
2023-04-26T12:23:09.831Z,4.10
2023-04-26T12:24:09.791Z,4.90
2023-04-26T12:25:09.776Z,5.00
2023-04-26T12:26:09.771Z,5.30
2023-04-26T12:27:09.759Z,12.20
2023-04-26T12:28:09.974Z,6.00
2023-04-26T12:29:09.742Z,4.90
2023-04-26T12:30:09.749Z,6.60
2023-04-26T12:31:09.794Z,6.40
2023-04-26T12:32:10.105Z,5.20
2023-04-26T12:33:17.123Z,6.60
2023-04-26T12:34:11.714Z,5.90
2023-04-26T12:35:10.327Z,4.80
2023-04-26T12:36:09.721Z,6.10
2023-04-26T12:37:09.703Z,4.60
2023-04-26T12:38:09.781Z,5.20
2023-04-26T12:39:09.688Z,4.50
2023-04-26T12:40:09.673Z,4.40
2023-04-26T12:41:09.651Z,4.20
2023-04-26T12:42:09.648Z,6.00
2023-04-26T12:43:09.673Z,4.80
2023-04-26T12:44:09.714Z,7.20
2023-04-26T12:45:09.641Z,4.60
2023-04-26T12:46:09.647Z,5.20
2023-04-26T12:47:09.616Z,6.00
2023-04-26T12:48:09.727Z,4.20
2023-04-26T12:49:09.600Z,5.80
2023-04-26T12:50:09.607Z,5.30
2023-04-26T12:51:09.594Z,3.90
2023-04-26T12:52:09.585Z,5.40
2023-04-26T12:53:09.600Z,5.10
2023-04-26T12:54:09.604Z,6.10
2023-04-26T12:55:09.558Z,7.60
2023-04-26T12:56:09.583Z,7.10
2023-04-26T12:57:09.663Z,7.80
2023-04-26T12:58:09.567Z,6.60
2023-04-26T12:59:09.565Z,6.10
2023-04-26T13:00:09.600Z,5.90
2023-04-26T13:01:09.742Z,4.70
2023-04-26T13:02:09.578Z,4.80
2023-04-26T13:03:09.794Z,5.60
2023-04-26T13:04:09.660Z,6.50
2023-04-26T13:05:09.495Z,5.10
2023-04-26T13:06:09.472Z,6.20
2023-04-26T13:07:09.465Z,8.10
2023-04-26T13:08:09.498Z,6.60
2023-04-26T13:09:09.460Z,5.30
2023-04-26T13:10:11.946Z,5.90